Aérodrome :
LOGIN :

S'inscrire | Disclaimer

   EN    FR    IT 

 










Légende :    VFR   VFR Marginal   IFR   IFR Intensif   IFR Très Intensif
Visi : 
Plafond : 
>= 8 km
>= 3000ft
5 à 8 km
1000 à 3000 ft
1500m à 5 km
500 à 1000 ft
800 à 1500m
200 à 500 ft
< 800m
< 200 ft
Symboles :   Orages  Brouillard  Fortes neiges  Fortes précipitations  Vent > 20 kt
SIGMETs :   Divers  Orages  Givrage  Turbulence  Onde Orograph.  Cendres Volcan.







- Altitude de l'aérodrome : 302 ft
- Code IATA : MAH


LEMH - Menorca

DERNIER METAR :
  • 250630Z 15003KT CAVOK 15/12 Q1014

METARs EXPIRÉS :
  • 250600Z 15004KT CAVOK 13/11 Q1014
  • 250530Z 15003KT 9999 VCFG NSC 12/10 Q1014
  • 250500Z 15003KT 9999 VCFG FEW020 12/11 Q1013
  • 250430Z 14003KT 9999 VCFG NSC 12/10 Q1013
  • 250400Z 15003KT CAVOK 12/11 Q1013
  • 250330Z AUTO VRB02KT 9999 NCD 12/11 Q1014

TAF TAF LEMH
Valide du 25 à 03h jusqu'au 26 à 03h UTC


250200Z 2503/2603 10008KT 9999 FEW008 TX22/2512Z TN08/2506Z
BECMG 2508/2511 18010KT FEW025
BECMG 2601/2603 25008KT
PROB30
TEMPO 2600/2603 3000 BR
Pas de NOTAMs connus pour ce terrain.



MET'MAP, la Météo Aéronautique d'un coup d'oeil ! - Copyright ORBIFLY Décembre 2007 - Disclaimer

ORBIFLY MET'MAP TEAM :

Programmation & Développement : Alexandra Zaïnal
Conception & Développement : Baudouin d'Aumeries
Co-Programmation & Développement : Marc-Olivier Méhu
Soutien technique & logistique : Manuel Goepfert

Contact : metmap@orbifly.com




SOURCES & CREDITS :

   NOAA